createdAt,value
2018-11-28T00:01:12.405Z,141908.41
2018-11-28T00:03:41.854Z,141943.06
2018-11-28T00:06:11.325Z,141910.91
2018-11-28T00:08:40.893Z,141926.97
2018-11-28T00:11:10.414Z,141919.56
2018-11-28T00:13:40.150Z,141881.20
2018-11-28T00:16:09.925Z,141918.31
2018-11-28T00:18:39.432Z,141891.09
2018-11-28T00:21:08.714Z,141875.05
2018-11-28T00:23:38.414Z,141883.70
2018-11-28T00:26:08.064Z,141914.61
2018-11-28T00:28:37.417Z,141873.80
2018-11-28T00:31:06.879Z,141857.70
2018-11-28T00:33:36.520Z,141860.20
2018-11-28T00:36:06.191Z,141858.95
2018-11-28T00:38:35.584Z,141849.05
2018-11-28T00:41:04.988Z,141899.75
2018-11-28T00:43:34.516Z,141846.59
2018-11-28T00:46:03.928Z,141837.94
2018-11-28T00:48:33.478Z,141834.19
2018-11-28T00:51:03.108Z,141828.05
2018-11-28T00:53:32.675Z,141819.34
2018-11-28T00:56:02.185Z,141811.94
2018-11-28T00:58:31.642Z,141839.14
2018-11-28T01:01:01.013Z,141834.19
2018-11-28T01:03:30.719Z,141777.30
2018-11-28T01:06:00.151Z,141784.75
2018-11-28T01:08:29.527Z,141767.45
2018-11-28T01:10:59.242Z,141782.25
2018-11-28T01:13:28.723Z,141804.55
2018-11-28T01:15:58.110Z,141800.80
2018-11-28T01:18:27.394Z,141757.56
2018-11-28T01:20:56.833Z,141750.11
2018-11-28T01:23:26.150Z,141748.91
2018-11-28T01:25:55.567Z,141772.41
2018-11-28T01:28:25.268Z,141746.41
2018-11-28T01:30:54.883Z,141711.83
2018-11-28T01:33:24.304Z,141743.97
2018-11-28T01:35:53.577Z,141717.97
2018-11-28T01:38:23.294Z,141690.73
2018-11-28T01:40:52.841Z,141698.12
2018-11-28T01:43:22.169Z,141703.08
2018-11-28T01:45:51.409Z,141726.63
2018-11-28T01:48:20.971Z,141710.53
2018-11-28T01:50:50.671Z,141680.84
2018-11-28T01:53:20.174Z,141684.55
2018-11-28T01:55:49.563Z,141683.34
2018-11-28T01:58:19.008Z,141706.83
2018-11-28T02:00:48.409Z,141688.28
2018-11-28T02:03:17.986Z,141706.83
2018-11-28T02:05:47.311Z,141703.08
2018-11-28T02:08:16.561Z,141710.53
2018-11-28T02:10:45.981Z,141688.28
2018-11-28T02:13:15.572Z,141730.38
2018-11-28T02:15:45.077Z,141739.02
2018-11-28T02:18:14.556Z,141693.19
2018-11-28T02:20:43.895Z,141711.83
2018-11-28T02:23:13.363Z,141714.28
2018-11-28T02:25:42.811Z,141726.63
2018-11-28T02:28:12.296Z,141680.84
2018-11-28T02:30:41.647Z,141688.28
2018-11-28T02:33:10.998Z,141742.72
2018-11-28T02:35:40.572Z,141646.27
2018-11-28T02:38:10.018Z,141628.94
2018-11-28T02:40:39.226Z,141607.95
2018-11-28T02:43:08.620Z,141607.95
2018-11-28T02:45:38.186Z,141606.70
2018-11-28T02:48:07.812Z,141609.16
2018-11-28T02:50:37.232Z,141627.73
2018-11-28T02:53:06.662Z,141604.25
2018-11-28T02:55:36.093Z,141642.52
2018-11-28T02:58:05.596Z,141586.92
2018-11-28T03:00:35.274Z,141647.47
2018-11-28T03:03:04.757Z,141617.84
2018-11-28T03:05:34.210Z,141617.84
2018-11-28T03:08:04.175Z,141611.66
2018-11-28T03:10:33.596Z,141610.41
2018-11-28T03:13:03.221Z,141553.55
2018-11-28T03:15:36.207Z,141549.86
2018-11-28T03:18:05.836Z,141575.83
2018-11-28T03:20:35.476Z,141535.03
2018-11-28T03:23:04.908Z,141538.77
2018-11-28T03:25:34.327Z,141556.05
2018-11-28T03:28:03.795Z,141521.44
2018-11-28T03:30:33.248Z,141577.03
2018-11-28T03:33:02.808Z,141567.14
2018-11-28T03:35:32.177Z,141562.25
2018-11-28T03:38:01.793Z,141496.77
2018-11-28T03:40:31.391Z,141465.86
2018-11-28T03:43:01.003Z,141474.50
2018-11-28T03:45:30.467Z,141475.75
2018-11-28T03:47:59.842Z,141501.67
2018-11-28T03:50:29.215Z,141477.00
2018-11-28T03:52:58.822Z,141454.78
2018-11-28T03:55:28.291Z,141464.63
2018-11-28T03:57:57.728Z,141475.75
2018-11-28T04:00:27.159Z,141468.36
2018-11-28T04:02:56.643Z,141455.98
2018-11-28T04:05:26.134Z,141460.92
2018-11-28T04:07:55.517Z,141512.80
2018-11-28T04:10:24.987Z,141497.97
2018-11-28T04:12:54.469Z,141490.58
2018-11-28T04:15:24.114Z,141444.91
2018-11-28T04:17:53.908Z,141415.25
2018-11-28T04:20:23.790Z,141421.44
2018-11-28T04:22:53.195Z,141420.19
2018-11-28T04:25:23.550Z,141397.97
2018-11-28T04:27:53.186Z,141384.39
2018-11-28T04:30:23.468Z,141418.94
2018-11-28T04:32:54.329Z,141404.11
2018-11-28T04:35:23.731Z,141375.72
2018-11-28T04:37:53.321Z,141409.06
2018-11-28T04:40:22.958Z,141391.78
2018-11-28T04:42:52.354Z,141388.09
2018-11-28T04:45:23.485Z,141374.52
2018-11-28T04:47:54.409Z,141384.39
2018-11-28T04:50:24.121Z,141362.12
2018-11-28T04:52:53.764Z,141364.63
2018-11-28T04:55:23.114Z,141369.56
2018-11-28T04:57:52.854Z,141346.11
2018-11-28T05:00:23.362Z,141339.92
2018-11-28T05:02:52.987Z,141389.34
2018-11-28T05:05:22.914Z,141342.42
2018-11-28T05:07:52.938Z,141330.05
2018-11-28T05:10:24.212Z,141323.91
2018-11-28T05:13:00.972Z,141328.84
2018-11-28T05:15:32.344Z,141318.97
2018-11-28T05:18:01.747Z,141357.19
2018-11-28T05:20:32.895Z,141344.88
2018-11-28T05:23:02.824Z,141328.84
2018-11-28T05:25:32.678Z,141315.22
2018-11-28T05:28:08.726Z,141309.09
2018-11-28T05:30:38.296Z,141315.22
2018-11-28T05:33:08.368Z,141300.45
2018-11-28T05:35:39.544Z,141270.81
2018-11-28T05:38:13.778Z,141291.78
2018-11-28T05:40:44.299Z,141311.53
2018-11-28T05:43:13.652Z,141312.78
2018-11-28T05:45:43.275Z,141314.03
2018-11-28T05:48:12.707Z,141376.95
2018-11-28T05:50:42.248Z,141402.91
2018-11-28T05:53:11.633Z,141359.69
2018-11-28T05:55:41.275Z,141426.38
2018-11-28T05:58:10.767Z,141353.50
2018-11-28T06:00:41.373Z,141320.17
2018-11-28T06:03:12.077Z,141433.77
2018-11-28T06:05:42.287Z,141363.37
2018-11-28T06:08:11.719Z,141318.97
2018-11-28T06:10:41.417Z,141321.41
2018-11-28T06:13:11.186Z,141338.69
2018-11-28T06:15:40.542Z,141328.84
2018-11-28T06:18:10.300Z,141351.06
2018-11-28T06:20:40.040Z,141317.72
2018-11-28T06:23:09.528Z,141339.92
2018-11-28T06:25:39.010Z,141321.41
2018-11-28T06:28:08.517Z,141328.84
2018-11-28T06:30:37.937Z,141325.11
2018-11-28T06:33:07.378Z,141376.95
2018-11-28T06:35:36.870Z,141356.00
2018-11-28T06:38:06.332Z,141349.81
2018-11-28T06:40:35.955Z,141354.75
2018-11-28T06:43:05.538Z,141374.52
2018-11-28T06:45:35.062Z,141389.34
2018-11-28T06:48:04.437Z,141385.59
2018-11-28T06:50:33.821Z,141358.44
2018-11-28T06:53:03.230Z,141346.11
2018-11-28T06:55:32.721Z,141351.06
2018-11-28T06:58:02.182Z,141347.36
2018-11-28T07:00:31.782Z,141342.42
2018-11-28T07:03:02.215Z,141339.92
2018-11-28T07:05:31.599Z,141346.11
2018-11-28T07:08:00.910Z,141370.81
2018-11-28T07:10:30.322Z,141320.17
2018-11-28T07:12:59.949Z,141314.03
2018-11-28T07:15:29.484Z,141302.91
2018-11-28T07:18:08.453Z,141328.84
2018-11-28T07:20:37.750Z,141297.97
2018-11-28T07:23:07.711Z,141297.97
2018-11-28T07:25:37.258Z,141299.20
2018-11-28T07:28:07.153Z,141289.33
2018-11-28T07:30:37.780Z,141272.06
2018-11-28T07:33:06.390Z,141256.00
2018-11-28T07:35:35.866Z,141243.67
2018-11-28T07:38:11.621Z,141239.98
2018-11-28T07:40:41.390Z,141248.63
2018-11-28T07:43:12.584Z,141226.42
2018-11-28T07:45:43.586Z,141241.19
2018-11-28T07:48:13.141Z,141220.23
2018-11-28T07:50:42.781Z,141235.05
2018-11-28T07:53:12.262Z,141241.19
2018-11-28T07:55:42.459Z,141273.27
2018-11-28T07:58:11.785Z,141223.92
2018-11-28T08:00:41.098Z,141252.31
2018-11-28T08:03:10.849Z,141212.81
2018-11-28T08:05:40.693Z,141214.05
2018-11-28T08:08:11.832Z,141181.98
2018-11-28T08:10:41.195Z,141191.84
2018-11-28T08:13:10.855Z,141214.05
2018-11-28T08:15:40.422Z,141205.42
2018-11-28T08:18:09.909Z,141170.86
2018-11-28T08:20:39.303Z,141177.05
2018-11-28T08:23:08.886Z,141159.78
2018-11-28T08:25:38.312Z,141178.28
2018-11-28T08:28:07.913Z,141172.11
2018-11-28T08:30:37.384Z,141207.86
2018-11-28T08:33:06.953Z,141185.67
2018-11-28T08:35:36.385Z,141184.47
2018-11-28T08:38:05.740Z,141209.11
2018-11-28T08:40:35.127Z,141188.16
2018-11-28T08:43:04.620Z,141162.22
2018-11-28T08:45:34.172Z,141194.30
2018-11-28T08:48:03.767Z,141216.55
2018-11-28T08:50:34.381Z,141223.92
2018-11-28T08:53:03.772Z,141212.81
2018-11-28T08:55:33.294Z,141263.44
2018-11-28T08:58:02.830Z,141274.52
2018-11-28T09:00:32.386Z,141221.48
2018-11-28T09:03:01.993Z,141230.11
2018-11-28T09:05:31.566Z,141272.06
2018-11-28T09:08:01.027Z,141307.84
2018-11-28T09:10:30.387Z,141222.67
2018-11-28T09:13:03.994Z,141258.50
2018-11-28T09:15:31.244Z,141223.92
2018-11-28T09:17:59.779Z,141302.91
2018-11-28T09:20:29.132Z,141305.39
2018-11-28T09:22:58.803Z,141322.66
2018-11-28T09:25:28.323Z,141265.87
2018-11-28T09:27:59.357Z,141352.30
2018-11-28T09:30:28.693Z,141327.59
2018-11-28T09:32:58.817Z,141359.69
2018-11-28T09:35:28.544Z,141316.47
2018-11-28T09:37:58.034Z,141315.22
2018-11-28T09:40:28.009Z,141352.30
2018-11-28T09:42:59.177Z,141302.91
2018-11-28T09:45:28.932Z,141299.20
2018-11-28T09:47:58.400Z,141284.39
2018-11-28T09:50:27.997Z,141293.02
2018-11-28T09:52:57.661Z,141259.69
2018-11-28T09:55:27.833Z,141280.69
2018-11-28T09:57:57.773Z,141270.81
2018-11-28T10:00:28.043Z,141314.03
2018-11-28T10:02:59.371Z,141251.06
2018-11-28T10:05:30.797Z,141210.36
2018-11-28T10:08:00.209Z,141226.42
2018-11-28T10:10:29.642Z,141243.67
2018-11-28T10:12:58.952Z,141238.75
2018-11-28T10:15:35.432Z,141190.61
2018-11-28T10:18:01.615Z,141174.59
2018-11-28T10:20:31.093Z,141194.30
2018-11-28T10:23:00.609Z,141262.19
2018-11-28T10:25:30.065Z,141101.80
2018-11-28T10:28:00.574Z,141074.67
2018-11-28T10:30:35.903Z,141063.56
2018-11-28T10:33:06.629Z,141077.17
2018-11-28T10:35:36.673Z,141130.17
2018-11-28T10:38:06.594Z,141058.67
2018-11-28T10:40:36.374Z,141043.88
2018-11-28T10:43:06.276Z,141025.38
2018-11-28T10:45:35.854Z,141029.06
2018-11-28T10:48:05.458Z,140999.45
2018-11-28T10:50:35.367Z,141064.81
2018-11-28T10:53:04.976Z,140974.84
2018-11-28T10:55:34.421Z,140994.53
2018-11-28T10:58:03.948Z,140976.03
2018-11-28T11:00:39.100Z,141004.39
2018-11-28T16:33:33.499Z,141004.39
2018-11-28T16:36:03.391Z,140248.66
2018-11-28T16:38:32.908Z,140322.39
2018-11-28T16:41:02.724Z,140231.41
2018-11-28T16:43:32.110Z,140211.78
2018-11-28T16:46:01.532Z,140204.37
2018-11-28T16:48:30.851Z,140232.66
2018-11-28T16:51:00.626Z,140220.38
2018-11-28T16:53:30.190Z,140233.89
2018-11-28T16:55:59.550Z,140240.00
2018-11-28T16:58:28.807Z,140279.36
2018-11-28T17:00:57.873Z,140241.25
2018-11-28T17:03:27.040Z,140238.81
2018-11-28T17:05:56.242Z,140222.81
2018-11-28T17:08:25.761Z,140237.56
2018-11-28T17:10:55.308Z,140206.86
2018-11-28T17:13:24.445Z,140209.30
2018-11-28T17:15:53.967Z,140205.63
2018-11-28T17:18:23.175Z,140236.33
2018-11-28T17:20:52.302Z,140231.41
2018-11-28T17:23:21.479Z,140338.34
2018-11-28T17:25:50.934Z,140290.44
2018-11-28T17:28:20.519Z,140310.06
2018-11-28T17:30:49.970Z,140300.28
2018-11-28T17:33:19.582Z,140237.56
2018-11-28T17:35:48.940Z,140257.25
2018-11-28T17:38:18.465Z,140284.28
2018-11-28T17:40:47.739Z,140243.72
2018-11-28T17:43:16.777Z,140292.87
